sensor_id;sensor_type;location;lat;lon;timestamp;temperature;humidity
56172;DHT22;42052;41.634;-0.946;2023-07-29T00:00:43;25.30;59.90
56172;DHT22;42052;41.634;-0.946;2023-07-29T00:03:09;25.30;59.90
56172;DHT22;42052;41.634;-0.946;2023-07-29T00:05:36;25.40;59.90
56172;DHT22;42052;41.634;-0.946;2023-07-29T00:08:02;25.50;60.10
56172;DHT22;42052;41.634;-0.946;2023-07-29T00:10:30;25.50;60.20
56172;DHT22;42052;41.634;-0.946;2023-07-29T00:12:56;25.60;60.30
56172;DHT22;42052;41.634;-0.946;2023-07-29T00:15:22;25.60;60.30
56172;DHT22;42052;41.634;-0.946;2023-07-29T00:17:47;25.70;60.30
56172;DHT22;42052;41.634;-0.946;2023-07-29T00:20:13;25.70;60.20
56172;DHT22;42052;41.634;-0.946;2023-07-29T00:22:39;25.70;60.40
56172;DHT22;42052;41.634;-0.946;2023-07-29T00:25:06;25.80;60.40
56172;DHT22;42052;41.634;-0.946;2023-07-29T00:27:32;25.90;60.50
56172;DHT22;42052;41.634;-0.946;2023-07-29T00:29:57;25.90;60.60
56172;DHT22;42052;41.634;-0.946;2023-07-29T00:32:23;25.90;60.80
56172;DHT22;42052;41.634;-0.946;2023-07-29T00:34:49;26.00;60.90
56172;DHT22;42052;41.634;-0.946;2023-07-29T00:37:15;26.00;60.90
56172;DHT22;42052;41.634;-0.946;2023-07-29T00:39:41;26.00;61.00
56172;DHT22;42052;41.634;-0.946;2023-07-29T00:42:06;26.10;61.00
56172;DHT22;42052;41.634;-0.946;2023-07-29T00:44:32;26.10;61.10
56172;DHT22;42052;41.634;-0.946;2023-07-29T00:47:00;26.10;61.20
56172;DHT22;42052;41.634;-0.946;2023-07-29T00:49:26;26.10;61.20
56172;DHT22;42052;41.634;-0.946;2023-07-29T00:51:52;26.10;61.20
56172;DHT22;42052;41.634;-0.946;2023-07-29T00:54:18;26.20;61.40
56172;DHT22;42052;41.634;-0.946;2023-07-29T00:56:44;26.20;61.30
56172;DHT22;42052;41.634;-0.946;2023-07-29T00:59:09;26.20;61.40
56172;DHT22;42052;41.634;-0.946;2023-07-29T01:01:35;26.30;61.60
56172;DHT22;42052;41.634;-0.946;2023-07-29T01:04:01;26.20;61.70
56172;DHT22;42052;41.634;-0.946;2023-07-29T01:06:29;26.20;61.70
56172;DHT22;42052;41.634;-0.946;2023-07-29T01:09:05;26.30;61.80
56172;DHT22;42052;41.634;-0.946;2023-07-29T01:14:47;26.30;62.20
56172;DHT22;42052;41.634;-0.946;2023-07-29T01:17:23;26.30;62.30
56172;DHT22;42052;41.634;-0.946;2023-07-29T01:20:00;26.40;62.50
56172;DHT22;42052;41.634;-0.946;2023-07-29T01:22:36;26.40;62.00
56172;DHT22;42052;41.634;-0.946;2023-07-29T01:25:03;26.40;63.00
56172;DHT22;42052;41.634;-0.946;2023-07-29T01:27:29;26.40;63.40
56172;DHT22;42052;41.634;-0.946;2023-07-29T01:29:56;26.40;63.40
56172;DHT22;42052;41.634;-0.946;2023-07-29T01:32:28;26.40;63.60
56172;DHT22;42052;41.634;-0.946;2023-07-29T01:37:55;26.50;64.30
56172;DHT22;42052;41.634;-0.946;2023-07-29T01:40:27;26.50;64.30
56172;DHT22;42052;41.634;-0.946;2023-07-29T01:42:53;26.50;64.30
56172;DHT22;42052;41.634;-0.946;2023-07-29T01:45:19;26.50;64.60
56172;DHT22;42052;41.634;-0.946;2023-07-29T01:47:50;26.50;65.00
56172;DHT22;42052;41.634;-0.946;2023-07-29T01:50:16;26.50;66.10
56172;DHT22;42052;41.634;-0.946;2023-07-29T01:52:42;26.50;66.60
56172;DHT22;42052;41.634;-0.946;2023-07-29T01:55:08;26.50;67.40
56172;DHT22;42052;41.634;-0.946;2023-07-29T01:57:34;26.60;71.90
56172;DHT22;42052;41.634;-0.946;2023-07-29T02:00:00;26.60;71.00
56172;DHT22;42052;41.634;-0.946;2023-07-29T02:02:25;26.60;72.50
56172;DHT22;42052;41.634;-0.946;2023-07-29T02:04:51;26.60;73.00
56172;DHT22;42052;41.634;-0.946;2023-07-29T02:07:20;26.60;73.90
56172;DHT22;42052;41.634;-0.946;2023-07-29T02:09:46;26.60;74.80
56172;DHT22;42052;41.634;-0.946;2023-07-29T02:12:12;26.60;74.10
56172;DHT22;42052;41.634;-0.946;2023-07-29T02:14:38;26.60;76.20
56172;DHT22;42052;41.634;-0.946;2023-07-29T02:17:04;26.60;77.50
56172;DHT22;42052;41.634;-0.946;2023-07-29T02:19:30;26.60;75.90
56172;DHT22;42052;41.634;-0.946;2023-07-29T02:21:56;26.60;73.40
56172;DHT22;42052;41.634;-0.946;2023-07-29T02:24:32;26.60;73.00
56172;DHT22;42052;41.634;-0.946;2023-07-29T02:26:57;26.70;73.10
56172;DHT22;42052;41.634;-0.946;2023-07-29T02:29:23;26.70;73.60
56172;DHT22;42052;41.634;-0.946;2023-07-29T02:31:50;26.70;69.70
56172;DHT22;42052;41.634;-0.946;2023-07-29T02:34:16;26.70;69.10
56172;DHT22;42052;41.634;-0.946;2023-07-29T02:36:42;26.70;68.20
56172;DHT22;42052;41.634;-0.946;2023-07-29T02:39:07;26.70;67.30
56172;DHT22;42052;41.634;-0.946;2023-07-29T02:41:34;26.70;66.60
56172;DHT22;42052;41.634;-0.946;2023-07-29T02:43:59;26.70;64.40
56172;DHT22;42052;41.634;-0.946;2023-07-29T02:46:25;26.70;63.60
56172;DHT22;42052;41.634;-0.946;2023-07-29T02:48:51;26.70;63.60
56172;DHT22;42052;41.634;-0.946;2023-07-29T02:51:17;26.70;63.40
56172;DHT22;42052;41.634;-0.946;2023-07-29T02:53:45;26.70;62.90
56172;DHT22;42052;41.634;-0.946;2023-07-29T02:56:11;26.70;62.50
56172;DHT22;42052;41.634;-0.946;2023-07-29T02:58:37;26.70;62.00
56172;DHT22;42052;41.634;-0.946;2023-07-29T03:01:04;26.70;62.00
56172;DHT22;42052;41.634;-0.946;2023-07-29T03:03:30;26.70;62.10
56172;DHT22;42052;41.634;-0.946;2023-07-29T03:06:00;26.80;62.00
56172;DHT22;42052;41.634;-0.946;2023-07-29T03:08:26;26.70;61.50
56172;DHT22;42052;41.634;-0.946;2023-07-29T03:10:52;26.70;61.50
56172;DHT22;42052;41.634;-0.946;2023-07-29T03:13:19;26.80;61.70
56172;DHT22;42052;41.634;-0.946;2023-07-29T03:15:44;26.70;61.80
56172;DHT22;42052;41.634;-0.946;2023-07-29T03:18:10;26.80;61.90
56172;DHT22;42052;41.634;-0.946;2023-07-29T03:20:37;26.70;61.70
56172;DHT22;42052;41.634;-0.946;2023-07-29T03:23:02;26.80;61.60
56172;DHT22;42052;41.634;-0.946;2023-07-29T03:25:28;26.80;61.50
56172;DHT22;42052;41.634;-0.946;2023-07-29T03:27:54;26.80;61.60
56172;DHT22;42052;41.634;-0.946;2023-07-29T03:30:21;26.80;61.60
56172;DHT22;42052;41.634;-0.946;2023-07-29T03:32:48;26.80;61.30
56172;DHT22;42052;41.634;-0.946;2023-07-29T03:35:14;26.80;61.40
56172;DHT22;42052;41.634;-0.946;2023-07-29T03:37:40;26.80;61.40
56172;DHT22;42052;41.634;-0.946;2023-07-29T03:40:07;26.80;61.40
56172;DHT22;42052;41.634;-0.946;2023-07-29T03:42:35;26.80;61.40
56172;DHT22;42052;41.634;-0.946;2023-07-29T03:45:01;26.80;61.40
56172;DHT22;42052;41.634;-0.946;2023-07-29T03:47:27;26.80;61.50
56172;DHT22;42052;41.634;-0.946;2023-07-29T03:49:53;26.80;61.50
56172;DHT22;42052;41.634;-0.946;2023-07-29T03:52:22;26.80;61.60
56172;DHT22;42052;41.634;-0.946;2023-07-29T03:54:47;26.80;61.50
56172;DHT22;42052;41.634;-0.946;2023-07-29T03:57:13;26.80;61.80
56172;DHT22;42052;41.634;-0.946;2023-07-29T03:59:39;26.80;61.90
56172;DHT22;42052;41.634;-0.946;2023-07-29T04:02:05;26.80;61.60
56172;DHT22;42052;41.634;-0.946;2023-07-29T04:04:30;26.80;61.60
56172;DHT22;42052;41.634;-0.946;2023-07-29T04:06:56;26.80;61.80
56172;DHT22;42052;41.634;-0.946;2023-07-29T04:09:22;26.80;61.90
56172;DHT22;42052;41.634;-0.946;2023-07-29T04:11:48;26.80;61.60
56172;DHT22;42052;41.634;-0.946;2023-07-29T04:14:14;26.80;61.60
56172;DHT22;42052;41.634;-0.946;2023-07-29T04:16:40;26.90;61.50
56172;DHT22;42052;41.634;-0.946;2023-07-29T04:19:05;26.80;61.80
56172;DHT22;42052;41.634;-0.946;2023-07-29T04:21:31;26.90;61.80
56172;DHT22;42052;41.634;-0.946;2023-07-29T04:23:57;26.80;61.40
56172;DHT22;42052;41.634;-0.946;2023-07-29T04:26:23;26.80;61.30
56172;DHT22;42052;41.634;-0.946;2023-07-29T04:28:48;26.80;61.20
56172;DHT22;42052;41.634;-0.946;2023-07-29T04:31:14;26.90;61.40
56172;DHT22;42052;41.634;-0.946;2023-07-29T04:33:40;26.90;62.30
56172;DHT22;42052;41.634;-0.946;2023-07-29T04:36:06;26.90;61.00
56172;DHT22;42052;41.634;-0.946;2023-07-29T04:38:32;26.90;61.20
56172;DHT22;42052;41.634;-0.946;2023-07-29T04:40:59;26.90;61.20
56172;DHT22;42052;41.634;-0.946;2023-07-29T04:43:31;26.90;61.20
56172;DHT22;42052;41.634;-0.946;2023-07-29T04:45:57;26.90;61.30
56172;DHT22;42052;41.634;-0.946;2023-07-29T04:48:23;26.90;61.30
56172;DHT22;42052;41.634;-0.946;2023-07-29T04:50:49;26.90;61.30
56172;DHT22;42052;41.634;-0.946;2023-07-29T04:53:15;26.90;61.50
56172;DHT22;42052;41.634;-0.946;2023-07-29T04:55:42;26.90;61.70
56172;DHT22;42052;41.634;-0.946;2023-07-29T04:58:09;26.90;61.90
56172;DHT22;42052;41.634;-0.946;2023-07-29T05:00:34;26.90;62.10
56172;DHT22;42052;41.634;-0.946;2023-07-29T05:03:00;26.90;62.00
56172;DHT22;42052;41.634;-0.946;2023-07-29T05:05:27;26.90;62.10
56172;DHT22;42052;41.634;-0.946;2023-07-29T05:07:53;26.90;62.50
56172;DHT22;42052;41.634;-0.946;2023-07-29T05:10:18;26.90;63.90
56172;DHT22;42052;41.634;-0.946;2023-07-29T05:12:45;26.90;63.50
56172;DHT22;42052;41.634;-0.946;2023-07-29T05:15:10;26.90;63.30
56172;DHT22;42052;41.634;-0.946;2023-07-29T05:17:36;27.00;63.20
56172;DHT22;42052;41.634;-0.946;2023-07-29T05:20:02;26.90;63.40
56172;DHT22;42052;41.634;-0.946;2023-07-29T05:22:28;27.00;64.20
56172;DHT22;42052;41.634;-0.946;2023-07-29T05:24:55;27.00;64.80
56172;DHT22;42052;41.634;-0.946;2023-07-29T05:27:20;27.00;64.70
56172;DHT22;42052;41.634;-0.946;2023-07-29T05:29:46;26.90;65.60
56172;DHT22;42052;41.634;-0.946;2023-07-29T05:32:12;26.90;64.40
56172;DHT22;42052;41.634;-0.946;2023-07-29T05:34:38;26.90;64.10
56172;DHT22;42052;41.634;-0.946;2023-07-29T05:37:04;26.90;64.30
56172;DHT22;42052;41.634;-0.946;2023-07-29T05:39:30;27.00;64.00
56172;DHT22;42052;41.634;-0.946;2023-07-29T05:41:57;26.90;64.40
56172;DHT22;42052;41.634;-0.946;2023-07-29T05:44:23;27.00;64.20
56172;DHT22;42052;41.634;-0.946;2023-07-29T05:46:49;27.00;64.80
56172;DHT22;42052;41.634;-0.946;2023-07-29T05:49:14;27.00;63.80
56172;DHT22;42052;41.634;-0.946;2023-07-29T05:51:40;27.00;64.50
56172;DHT22;42052;41.634;-0.946;2023-07-29T05:54:06;27.00;63.80
56172;DHT22;42052;41.634;-0.946;2023-07-29T05:56:32;27.00;63.50
56172;DHT22;42052;41.634;-0.946;2023-07-29T05:58:57;27.00;63.50
56172;DHT22;42052;41.634;-0.946;2023-07-29T06:01:23;27.00;63.60
56172;DHT22;42052;41.634;-0.946;2023-07-29T06:03:49;27.00;63.60
56172;DHT22;42052;41.634;-0.946;2023-07-29T06:06:15;27.00;63.10
56172;DHT22;42052;41.634;-0.946;2023-07-29T06:08:41;27.00;62.50
56172;DHT22;42052;41.634;-0.946;2023-07-29T06:11:07;27.00;62.20
56172;DHT22;42052;41.634;-0.946;2023-07-29T06:13:33;27.00;62.00
56172;DHT22;42052;41.634;-0.946;2023-07-29T06:15:59;27.10;62.10
56172;DHT22;42052;41.634;-0.946;2023-07-29T06:18:24;27.00;62.10
56172;DHT22;42052;41.634;-0.946;2023-07-29T06:20:51;27.00;61.90
56172;DHT22;42052;41.634;-0.946;2023-07-29T06:23:17;27.10;61.80
56172;DHT22;42052;41.634;-0.946;2023-07-29T06:25:42;27.00;61.70
56172;DHT22;42052;41.634;-0.946;2023-07-29T06:28:09;27.00;61.70
56172;DHT22;42052;41.634;-0.946;2023-07-29T06:30:35;27.00;61.40
56172;DHT22;42052;41.634;-0.946;2023-07-29T06:33:01;27.00;61.40
56172;DHT22;42052;41.634;-0.946;2023-07-29T06:35:29;27.00;61.20
56172;DHT22;42052;41.634;-0.946;2023-07-29T06:37:55;27.00;61.10
56172;DHT22;42052;41.634;-0.946;2023-07-29T06:40:20;27.00;61.20
56172;DHT22;42052;41.634;-0.946;2023-07-29T06:42:50;27.00;61.10
56172;DHT22;42052;41.634;-0.946;2023-07-29T06:45:16;27.10;60.90
56172;DHT22;42052;41.634;-0.946;2023-07-29T06:47:41;27.00;60.90
56172;DHT22;42052;41.634;-0.946;2023-07-29T06:50:08;27.10;60.90
56172;DHT22;42052;41.634;-0.946;2023-07-29T06:52:33;27.10;60.80
56172;DHT22;42052;41.634;-0.946;2023-07-29T06:55:01;27.10;60.50
56172;DHT22;42052;41.634;-0.946;2023-07-29T06:57:27;27.10;60.40
56172;DHT22;42052;41.634;-0.946;2023-07-29T06:59:52;27.00;60.00
56172;DHT22;42052;41.634;-0.946;2023-07-29T07:02:18;27.00;60.00
56172;DHT22;42052;41.634;-0.946;2023-07-29T07:04:44;27.00;60.10
56172;DHT22;42052;41.634;-0.946;2023-07-29T07:07:10;27.10;60.20
56172;DHT22;42052;41.634;-0.946;2023-07-29T07:09:36;27.00;60.10
56172;DHT22;42052;41.634;-0.946;2023-07-29T07:12:02;27.10;60.00
56172;DHT22;42052;41.634;-0.946;2023-07-29T07:14:27;27.10;60.00
56172;DHT22;42052;41.634;-0.946;2023-07-29T07:16:53;27.10;60.00
56172;DHT22;42052;41.634;-0.946;2023-07-29T07:19:19;27.10;60.60
56172;DHT22;42052;41.634;-0.946;2023-07-29T07:21:45;27.10;60.00
56172;DHT22;42052;41.634;-0.946;2023-07-29T07:24:10;27.10;59.90
56172;DHT22;42052;41.634;-0.946;2023-07-29T07:26:36;27.10;60.00
56172;DHT22;42052;41.634;-0.946;2023-07-29T07:29:02;27.10;60.20
56172;DHT22;42052;41.634;-0.946;2023-07-29T07:31:28;27.10;60.10
56172;DHT22;42052;41.634;-0.946;2023-07-29T07:33:54;27.10;60.10
56172;DHT22;42052;41.634;-0.946;2023-07-29T07:36:19;27.10;60.30
56172;DHT22;42052;41.634;-0.946;2023-07-29T07:38:50;27.10;60.30
56172;DHT22;42052;41.634;-0.946;2023-07-29T07:41:16;27.10;60.50
56172;DHT22;42052;41.634;-0.946;2023-07-29T07:43:41;27.10;60.50
56172;DHT22;42052;41.634;-0.946;2023-07-29T07:46:07;27.10;60.80
56172;DHT22;42052;41.634;-0.946;2023-07-29T07:48:33;27.10;60.60
56172;DHT22;42052;41.634;-0.946;2023-07-29T07:50:59;27.10;60.50
56172;DHT22;42052;41.634;-0.946;2023-07-29T07:53:24;27.10;60.50
56172;DHT22;42052;41.634;-0.946;2023-07-29T07:55:53;27.10;60.50
56172;DHT22;42052;41.634;-0.946;2023-07-29T07:58:20;27.10;60.50
56172;DHT22;42052;41.634;-0.946;2023-07-29T08:00:45;27.10;60.50
56172;DHT22;42052;41.634;-0.946;2023-07-29T08:03:11;27.10;60.50
56172;DHT22;42052;41.634;-0.946;2023-07-29T08:05:37;27.10;60.70
56172;DHT22;42052;41.634;-0.946;2023-07-29T08:08:03;27.10;60.80
56172;DHT22;42052;41.634;-0.946;2023-07-29T08:10:29;27.10;60.30
56172;DHT22;42052;41.634;-0.946;2023-07-29T08:12:54;27.10;60.40
56172;DHT22;42052;41.634;-0.946;2023-07-29T08:15:20;27.10;60.40
56172;DHT22;42052;41.634;-0.946;2023-07-29T08:17:46;27.10;60.50
56172;DHT22;42052;41.634;-0.946;2023-07-29T08:20:13;27.10;60.50
56172;DHT22;42052;41.634;-0.946;2023-07-29T08:22:40;27.10;60.40
56172;DHT22;42052;41.634;-0.946;2023-07-29T08:25:06;27.20;60.20
56172;DHT22;42052;41.634;-0.946;2023-07-29T08:27:33;27.10;59.90
56172;DHT22;42052;41.634;-0.946;2023-07-29T08:30:00;27.10;60.00
56172;DHT22;42052;41.634;-0.946;2023-07-29T08:32:25;27.10;59.90
56172;DHT22;42052;41.634;-0.946;2023-07-29T08:34:51;27.10;59.90
56172;DHT22;42052;41.634;-0.946;2023-07-29T08:37:17;27.10;59.80
56172;DHT22;42052;41.634;-0.946;2023-07-29T08:39:43;27.10;60.00
56172;DHT22;42052;41.634;-0.946;2023-07-29T08:42:11;27.10;60.10
56172;DHT22;42052;41.634;-0.946;2023-07-29T08:44:41;27.20;60.10
56172;DHT22;42052;41.634;-0.946;2023-07-29T08:47:07;27.20;60.20
56172;DHT22;42052;41.634;-0.946;2023-07-29T08:49:34;27.20;60.30
56172;DHT22;42052;41.634;-0.946;2023-07-29T08:52:01;27.20;60.30
56172;DHT22;42052;41.634;-0.946;2023-07-29T08:54:27;27.20;60.20
56172;DHT22;42052;41.634;-0.946;2023-07-29T08:56:53;27.20;60.10
56172;DHT22;42052;41.634;-0.946;2023-07-29T08:59:23;27.20;60.10
56172;DHT22;42052;41.634;-0.946;2023-07-29T09:01:49;27.20;59.90
56172;DHT22;42052;41.634;-0.946;2023-07-29T09:04:15;27.20;59.80
56172;DHT22;42052;41.634;-0.946;2023-07-29T09:06:43;27.20;59.80
56172;DHT22;42052;41.634;-0.946;2023-07-29T09:09:10;27.20;59.80
56172;DHT22;42052;41.634;-0.946;2023-07-29T09:11:35;27.20;59.50
56172;DHT22;42052;41.634;-0.946;2023-07-29T09:14:01;27.20;59.50
56172;DHT22;42052;41.634;-0.946;2023-07-29T09:16:27;27.20;59.50
56172;DHT22;42052;41.634;-0.946;2023-07-29T09:18:53;27.20;59.70
56172;DHT22;42052;41.634;-0.946;2023-07-29T09:21:24;27.20;59.70
56172;DHT22;42052;41.634;-0.946;2023-07-29T09:23:52;27.20;59.60
56172;DHT22;42052;41.634;-0.946;2023-07-29T09:26:27;27.20;59.80
56172;DHT22;42052;41.634;-0.946;2023-07-29T09:28:55;27.20;59.70
56172;DHT22;42052;41.634;-0.946;2023-07-29T09:31:26;27.20;59.80
56172;DHT22;42052;41.634;-0.946;2023-07-29T09:34:02;27.20;59.80
56172;DHT22;42052;41.634;-0.946;2023-07-29T09:36:31;27.30;59.80
56172;DHT22;42052;41.634;-0.946;2023-07-29T09:38:59;27.30;59.90
56172;DHT22;42052;41.634;-0.946;2023-07-29T09:41:29;27.30;60.00
56172;DHT22;42052;41.634;-0.946;2023-07-29T09:43:59;27.30;60.20
56172;DHT22;42052;41.634;-0.946;2023-07-29T09:46:33;27.30;60.20
56172;DHT22;42052;41.634;-0.946;2023-07-29T09:49:02;27.30;60.20
56172;DHT22;42052;41.634;-0.946;2023-07-29T09:51:28;27.30;60.20
56172;DHT22;42052;41.634;-0.946;2023-07-29T09:53:54;27.30;60.20
56172;DHT22;42052;41.634;-0.946;2023-07-29T09:56:25;27.30;60.20
56172;DHT22;42052;41.634;-0.946;2023-07-29T09:58:52;27.30;60.20
56172;DHT22;42052;41.634;-0.946;2023-07-29T10:01:18;27.30;60.20
56172;DHT22;42052;41.634;-0.946;2023-07-29T10:03:47;27.30;60.90
56172;DHT22;42052;41.634;-0.946;2023-07-29T10:06:14;27.30;60.20
56172;DHT22;42052;41.634;-0.946;2023-07-29T10:08:42;27.30;59.90
56172;DHT22;42052;41.634;-0.946;2023-07-29T10:11:09;27.30;59.60
56172;DHT22;42052;41.634;-0.946;2023-07-29T10:13:36;27.40;60.00
56172;DHT22;42052;41.634;-0.946;2023-07-29T10:16:03;27.40;60.20
56172;DHT22;42052;41.634;-0.946;2023-07-29T10:18:31;27.40;60.30
56172;DHT22;42052;41.634;-0.946;2023-07-29T10:20:59;27.40;60.50
56172;DHT22;42052;41.634;-0.946;2023-07-29T10:23:26;27.40;60.80
56172;DHT22;42052;41.634;-0.946;2023-07-29T10:26:10;27.40;61.10
56172;DHT22;42052;41.634;-0.946;2023-07-29T10:28:40;27.40;61.70
56172;DHT22;42052;41.634;-0.946;2023-07-29T10:31:06;27.40;62.30
56172;DHT22;42052;41.634;-0.946;2023-07-29T10:33:34;27.40;62.50
56172;DHT22;42052;41.634;-0.946;2023-07-29T10:36:00;27.40;63.10
56172;DHT22;42052;41.634;-0.946;2023-07-29T10:38:26;27.40;64.20
56172;DHT22;42052;41.634;-0.946;2023-07-29T10:40:54;27.40;62.70
56172;DHT22;42052;41.634;-0.946;2023-07-29T10:43:33;27.30;62.20
56172;DHT22;42052;41.634;-0.946;2023-07-29T10:46:18;27.10;61.20
56172;DHT22;42052;41.634;-0.946;2023-07-29T10:51:36;26.80;60.70
56172;DHT22;42052;41.634;-0.946;2023-07-29T10:54:13;26.60;60.10
56172;DHT22;42052;41.634;-0.946;2023-07-29T10:56:58;26.50;60.20
56172;DHT22;42052;41.634;-0.946;2023-07-29T10:59:33;26.40;60.50
56172;DHT22;42052;41.634;-0.946;2023-07-29T11:02:15;26.20;62.70
56172;DHT22;42052;41.634;-0.946;2023-07-29T11:04:50;26.10;60.20
56172;DHT22;42052;41.634;-0.946;2023-07-29T11:12:34;26.00;61.00
56172;DHT22;42052;41.634;-0.946;2023-07-29T11:15:18;25.90;59.50
56172;DHT22;42052;41.634;-0.946;2023-07-29T11:17:46;25.90;58.80
56172;DHT22;42052;41.634;-0.946;2023-07-29T11:20:14;25.90;59.10
56172;DHT22;42052;41.634;-0.946;2023-07-29T11:22:40;25.90;59.20
56172;DHT22;42052;41.634;-0.946;2023-07-29T11:25:10;25.80;59.00
56172;DHT22;42052;41.634;-0.946;2023-07-29T11:27:37;25.80;59.10
56172;DHT22;42052;41.634;-0.946;2023-07-29T11:30:05;25.80;59.50
56172;DHT22;42052;41.634;-0.946;2023-07-29T11:32:36;25.80;59.70
56172;DHT22;42052;41.634;-0.946;2023-07-29T11:35:06;25.70;60.10
56172;DHT22;42052;41.634;-0.946;2023-07-29T11:37:34;25.70;60.60
56172;DHT22;42052;41.634;-0.946;2023-07-29T11:40:00;25.80;60.90
56172;DHT22;42052;41.634;-0.946;2023-07-29T11:42:27;25.80;61.40
56172;DHT22;42052;41.634;-0.946;2023-07-29T11:44:57;25.90;62.20
56172;DHT22;42052;41.634;-0.946;2023-07-29T11:47:24;26.00;62.40
56172;DHT22;42052;41.634;-0.946;2023-07-29T11:49:50;26.00;62.50
56172;DHT22;42052;41.634;-0.946;2023-07-29T11:52:18;26.10;63.80
56172;DHT22;42052;41.634;-0.946;2023-07-29T11:54:47;26.10;64.20
56172;DHT22;42052;41.634;-0.946;2023-07-29T11:57:13;26.20;64.30
56172;DHT22;42052;41.634;-0.946;2023-07-29T11:59:41;26.30;65.60
56172;DHT22;42052;41.634;-0.946;2023-07-29T12:02:16;26.30;65.20
56172;DHT22;42052;41.634;-0.946;2023-07-29T12:04:43;26.40;64.40
56172;DHT22;42052;41.634;-0.946;2023-07-29T12:07:10;26.40;64.70
56172;DHT22;42052;41.634;-0.946;2023-07-29T12:09:38;26.50;65.20
56172;DHT22;42052;41.634;-0.946;2023-07-29T12:12:05;26.50;66.60
56172;DHT22;42052;41.634;-0.946;2023-07-29T12:14:33;26.60;67.40
56172;DHT22;42052;41.634;-0.946;2023-07-29T12:17:03;26.60;69.50
56172;DHT22;42052;41.634;-0.946;2023-07-29T12:19:36;26.60;73.80
56172;DHT22;42052;41.634;-0.946;2023-07-29T12:22:04;26.70;71.50
56172;DHT22;42052;41.634;-0.946;2023-07-29T12:24:31;26.60;66.30
56172;DHT22;42052;41.634;-0.946;2023-07-29T12:26:57;26.70;67.20
56172;DHT22;42052;41.634;-0.946;2023-07-29T12:29:23;26.70;68.40
56172;DHT22;42052;41.634;-0.946;2023-07-29T12:32:00;26.70;69.50
56172;DHT22;42052;41.634;-0.946;2023-07-29T12:34:28;26.80;73.70
56172;DHT22;42052;41.634;-0.946;2023-07-29T12:36:55;26.70;74.70
56172;DHT22;42052;41.634;-0.946;2023-07-29T12:39:26;26.80;76.00
56172;DHT22;42052;41.634;-0.946;2023-07-29T12:41:54;26.90;72.80
56172;DHT22;42052;41.634;-0.946;2023-07-29T12:44:33;26.90;66.90
56172;DHT22;42052;41.634;-0.946;2023-07-29T12:47:01;26.90;66.10
56172;DHT22;42052;41.634;-0.946;2023-07-29T12:49:28;26.90;65.70
56172;DHT22;42052;41.634;-0.946;2023-07-29T12:51:58;26.90;65.50
56172;DHT22;42052;41.634;-0.946;2023-07-29T12:54:24;26.90;65.40
56172;DHT22;42052;41.634;-0.946;2023-07-29T12:56:50;26.90;65.20
56172;DHT22;42052;41.634;-0.946;2023-07-29T12:59:16;27.00;65.20
56172;DHT22;42052;41.634;-0.946;2023-07-29T13:01:42;27.00;65.10
56172;DHT22;42052;41.634;-0.946;2023-07-29T13:04:10;27.00;65.30
56172;DHT22;42052;41.634;-0.946;2023-07-29T13:06:35;27.00;65.30
56172;DHT22;42052;41.634;-0.946;2023-07-29T13:09:01;27.00;65.20
56172;DHT22;42052;41.634;-0.946;2023-07-29T13:11:27;27.00;65.40
56172;DHT22;42052;41.634;-0.946;2023-07-29T13:13:53;27.00;65.50
56172;DHT22;42052;41.634;-0.946;2023-07-29T13:16:19;27.00;65.30
56172;DHT22;42052;41.634;-0.946;2023-07-29T13:18:45;27.00;65.20
56172;DHT22;42052;41.634;-0.946;2023-07-29T13:21:10;27.10;65.10
56172;DHT22;42052;41.634;-0.946;2023-07-29T13:23:36;27.00;64.80
56172;DHT22;42052;41.634;-0.946;2023-07-29T13:26:02;27.00;64.70
56172;DHT22;42052;41.634;-0.946;2023-07-29T13:28:28;27.10;64.70
56172;DHT22;42052;41.634;-0.946;2023-07-29T13:30:54;27.10;64.70
56172;DHT22;42052;41.634;-0.946;2023-07-29T13:33:19;27.10;64.80
56172;DHT22;42052;41.634;-0.946;2023-07-29T13:35:45;27.10;64.50
56172;DHT22;42052;41.634;-0.946;2023-07-29T13:38:11;27.10;64.50
56172;DHT22;42052;41.634;-0.946;2023-07-29T13:40:37;27.10;64.50
56172;DHT22;42052;41.634;-0.946;2023-07-29T13:43:02;27.10;64.50
56172;DHT22;42052;41.634;-0.946;2023-07-29T13:45:28;27.10;64.40
56172;DHT22;42052;41.634;-0.946;2023-07-29T13:47:54;27.10;64.40
56172;DHT22;42052;41.634;-0.946;2023-07-29T13:50:20;27.10;64.20
56172;DHT22;42052;41.634;-0.946;2023-07-29T13:52:46;27.10;64.20
56172;DHT22;42052;41.634;-0.946;2023-07-29T13:55:12;27.20;64.30
56172;DHT22;42052;41.634;-0.946;2023-07-29T13:57:38;27.20;64.30
56172;DHT22;42052;41.634;-0.946;2023-07-29T14:00:06;27.20;64.30
56172;DHT22;42052;41.634;-0.946;2023-07-29T14:02:32;27.20;64.20
56172;DHT22;42052;41.634;-0.946;2023-07-29T14:04:58;27.20;64.50
56172;DHT22;42052;41.634;-0.946;2023-07-29T14:07:25;27.20;64.40
56172;DHT22;42052;41.634;-0.946;2023-07-29T14:09:51;27.20;64.50
56172;DHT22;42052;41.634;-0.946;2023-07-29T14:12:16;27.20;64.50
56172;DHT22;42052;41.634;-0.946;2023-07-29T14:14:42;27.20;64.30
56172;DHT22;42052;41.634;-0.946;2023-07-29T14:17:08;27.20;64.20
56172;DHT22;42052;41.634;-0.946;2023-07-29T14:19:36;27.30;64.40
56172;DHT22;42052;41.634;-0.946;2023-07-29T14:22:01;27.30;64.30
56172;DHT22;42052;41.634;-0.946;2023-07-29T14:24:27;27.30;64.20
56172;DHT22;42052;41.634;-0.946;2023-07-29T14:26:53;27.30;64.00
56172;DHT22;42052;41.634;-0.946;2023-07-29T14:29:19;27.30;63.90
56172;DHT22;42052;41.634;-0.946;2023-07-29T14:31:44;27.30;64.00
56172;DHT22;42052;41.634;-0.946;2023-07-29T14:34:10;27.30;64.00
56172;DHT22;42052;41.634;-0.946;2023-07-29T14:36:36;27.30;64.00
56172;DHT22;42052;41.634;-0.946;2023-07-29T14:39:03;27.30;63.80
56172;DHT22;42052;41.634;-0.946;2023-07-29T14:41:30;27.30;63.80
56172;DHT22;42052;41.634;-0.946;2023-07-29T14:43:56;27.30;63.80
56172;DHT22;42052;41.634;-0.946;2023-07-29T14:46:22;27.30;63.50
56172;DHT22;42052;41.634;-0.946;2023-07-29T14:48:48;27.30;63.50
56172;DHT22;42052;41.634;-0.946;2023-07-29T14:51:14;27.30;63.40
56172;DHT22;42052;41.634;-0.946;2023-07-29T14:53:40;27.30;63.20
56172;DHT22;42052;41.634;-0.946;2023-07-29T14:56:06;27.30;63.20
56172;DHT22;42052;41.634;-0.946;2023-07-29T14:58:32;27.40;63.30
56172;DHT22;42052;41.634;-0.946;2023-07-29T15:00:57;27.40;63.30
56172;DHT22;42052;41.634;-0.946;2023-07-29T15:03:24;27.40;63.30
56172;DHT22;42052;41.634;-0.946;2023-07-29T15:05:50;27.40;63.20
56172;DHT22;42052;41.634;-0.946;2023-07-29T15:08:16;27.40;63.10
56172;DHT22;42052;41.634;-0.946;2023-07-29T15:10:47;27.40;63.10
56172;DHT22;42052;41.634;-0.946;2023-07-29T15:13:14;27.40;63.20
56172;DHT22;42052;41.634;-0.946;2023-07-29T15:15:43;27.40;63.90
56172;DHT22;42052;41.634;-0.946;2023-07-29T15:18:09;27.40;63.10
56172;DHT22;42052;41.634;-0.946;2023-07-29T15:20:35;27.40;63.00
56172;DHT22;42052;41.634;-0.946;2023-07-29T15:23:04;27.40;62.90
56172;DHT22;42052;41.634;-0.946;2023-07-29T15:25:30;27.40;62.90
56172;DHT22;42052;41.634;-0.946;2023-07-29T15:27:56;27.40;63.00